sensor_id;sensor_type;location;lat;lon;timestamp;P1;durP1;ratioP1;P2;durP2;ratioP2
35887;SDS011;21990;42.540;23.496;2023-02-15T00:01:45;59.83;;;31.55;;
35887;SDS011;21990;42.540;23.496;2023-02-15T00:04:14;63.83;;;33.50;;
35887;SDS011;21990;42.540;23.496;2023-02-15T00:06:41;62.35;;;33.60;;
35887;SDS011;21990;42.540;23.496;2023-02-15T00:09:08;63.13;;;33.60;;
35887;SDS011;21990;42.540;23.496;2023-02-15T00:11:34;67.10;;;35.70;;
35887;SDS011;21990;42.540;23.496;2023-02-15T00:14:22;65.00;;;34.67;;
35887;SDS011;21990;42.540;23.496;2023-02-15T00:16:49;65.93;;;34.03;;
35887;SDS011;21990;42.540;23.496;2023-02-15T00:19:17;63.75;;;34.47;;
35887;SDS011;21990;42.540;23.496;2023-02-15T00:21:44;65.07;;;34.95;;
35887;SDS011;21990;42.540;23.496;2023-02-15T00:24:14;71.22;;;36.88;;
35887;SDS011;21990;42.540;23.496;2023-02-15T00:26:42;60.25;;;32.90;;
35887;SDS011;21990;42.540;23.496;2023-02-15T00:29:09;65.78;;;33.42;;
35887;SDS011;21990;42.540;23.496;2023-02-15T00:31:37;59.42;;;32.60;;
35887;SDS011;21990;42.540;23.496;2023-02-15T00:34:04;59.78;;;32.00;;
35887;SDS011;21990;42.540;23.496;2023-02-15T00:36:32;62.83;;;34.22;;
35887;SDS011;21990;42.540;23.496;2023-02-15T00:38:58;63.22;;;32.88;;
35887;SDS011;21990;42.540;23.496;2023-02-15T00:41:23;58.17;;;32.13;;
35887;SDS011;21990;42.540;23.496;2023-02-15T00:43:49;66.32;;;33.67;;
35887;SDS011;21990;42.540;23.496;2023-02-15T00:46:15;60.60;;;32.10;;
35887;SDS011;21990;42.540;23.496;2023-02-15T00:48:40;63.25;;;33.83;;
35887;SDS011;21990;42.540;23.496;2023-02-15T00:51:06;61.42;;;32.42;;
35887;SDS011;21990;42.540;23.496;2023-02-15T00:53:31;63.42;;;32.30;;
35887;SDS011;21990;42.540;23.496;2023-02-15T00:55:57;59.05;;;30.52;;
35887;SDS011;21990;42.540;23.496;2023-02-15T00:58:23;61.90;;;32.47;;
35887;SDS011;21990;42.540;23.496;2023-02-15T01:00:49;56.03;;;30.98;;
35887;SDS011;21990;42.540;23.496;2023-02-15T01:03:15;79.40;;;34.72;;
35887;SDS011;21990;42.540;23.496;2023-02-15T01:05:42;58.10;;;32.40;;
35887;SDS011;21990;42.540;23.496;2023-02-15T01:08:08;62.55;;;32.75;;
35887;SDS011;21990;42.540;23.496;2023-02-15T01:10:34;62.65;;;31.60;;
35887;SDS011;21990;42.540;23.496;2023-02-15T01:13:01;61.45;;;31.83;;
35887;SDS011;21990;42.540;23.496;2023-02-15T01:15:27;64.55;;;30.75;;
35887;SDS011;21990;42.540;23.496;2023-02-15T01:17:53;62.13;;;32.33;;
35887;SDS011;21990;42.540;23.496;2023-02-15T01:20:19;56.15;;;31.60;;
35887;SDS011;21990;42.540;23.496;2023-02-15T01:22:47;58.80;;;31.42;;
35887;SDS011;21990;42.540;23.496;2023-02-15T01:25:15;60.10;;;32.65;;
35887;SDS011;21990;42.540;23.496;2023-02-15T01:27:41;58.80;;;31.65;;
35887;SDS011;21990;42.540;23.496;2023-02-15T01:30:07;65.03;;;34.15;;
35887;SDS011;21990;42.540;23.496;2023-02-15T01:32:34;60.75;;;32.47;;
35887;SDS011;21990;42.540;23.496;2023-02-15T01:34:59;57.08;;;31.17;;
35887;SDS011;21990;42.540;23.496;2023-02-15T01:37:25;60.35;;;29.23;;
35887;SDS011;21990;42.540;23.496;2023-02-15T01:39:50;60.97;;;31.52;;
35887;SDS011;21990;42.540;23.496;2023-02-15T01:42:20;61.97;;;32.08;;
35887;SDS011;21990;42.540;23.496;2023-02-15T01:44:58;59.88;;;31.77;;
35887;SDS011;21990;42.540;23.496;2023-02-15T01:47:36;56.75;;;31.88;;
35887;SDS011;21990;42.540;23.496;2023-02-15T01:50:16;61.72;;;32.35;;
35887;SDS011;21990;42.540;23.496;2023-02-15T01:52:49;63.08;;;33.65;;
35887;SDS011;21990;42.540;23.496;2023-02-15T01:55:36;61.47;;;31.08;;
35887;SDS011;21990;42.540;23.496;2023-02-15T01:58:05;56.53;;;30.83;;
35887;SDS011;21990;42.540;23.496;2023-02-15T02:00:32;55.78;;;30.90;;
35887;SDS011;21990;42.540;23.496;2023-02-15T02:02:59;58.10;;;30.25;;
35887;SDS011;21990;42.540;23.496;2023-02-15T02:05:26;60.90;;;31.38;;
35887;SDS011;21990;42.540;23.496;2023-02-15T02:07:54;60.67;;;31.00;;
35887;SDS011;21990;42.540;23.496;2023-02-15T02:10:24;57.90;;;31.52;;
35887;SDS011;21990;42.540;23.496;2023-02-15T02:12:52;58.50;;;31.83;;
35887;SDS011;21990;42.540;23.496;2023-02-15T02:15:28;60.05;;;30.58;;
35887;SDS011;21990;42.540;23.496;2023-02-15T02:20:51;55.65;;;29.80;;
35887;SDS011;21990;42.540;23.496;2023-02-15T02:23:45;63.15;;;33.55;;
35887;SDS011;21990;42.540;23.496;2023-02-15T02:35:30;59.53;;;29.38;;
35887;SDS011;21990;42.540;23.496;2023-02-15T02:43:17;54.63;;;28.83;;
35887;SDS011;21990;42.540;23.496;2023-02-15T02:45:47;58.20;;;30.15;;
35887;SDS011;21990;42.540;23.496;2023-02-15T02:48:20;56.90;;;30.42;;
35887;SDS011;21990;42.540;23.496;2023-02-15T02:50:49;59.45;;;30.77;;
35887;SDS011;21990;42.540;23.496;2023-02-15T02:53:15;56.15;;;30.45;;
35887;SDS011;21990;42.540;23.496;2023-02-15T02:58:24;58.05;;;29.75;;
35887;SDS011;21990;42.540;23.496;2023-02-15T03:01:03;58.80;;;30.08;;
35887;SDS011;21990;42.540;23.496;2023-02-15T03:03:38;54.33;;;30.05;;
35887;SDS011;21990;42.540;23.496;2023-02-15T03:06:11;54.95;;;30.63;;
35887;SDS011;21990;42.540;23.496;2023-02-15T03:08:44;59.78;;;28.65;;
35887;SDS011;21990;42.540;23.496;2023-02-15T03:11:13;51.45;;;27.52;;
35887;SDS011;21990;42.540;23.496;2023-02-15T03:13:39;55.05;;;28.98;;
35887;SDS011;21990;42.540;23.496;2023-02-15T03:16:06;53.72;;;28.80;;
35887;SDS011;21990;42.540;23.496;2023-02-15T03:18:57;53.60;;;28.17;;
35887;SDS011;21990;42.540;23.496;2023-02-15T03:21:36;53.58;;;27.38;;
35887;SDS011;21990;42.540;23.496;2023-02-15T03:24:19;48.60;;;26.00;;
35887;SDS011;21990;42.540;23.496;2023-02-15T03:26:49;52.00;;;27.37;;
35887;SDS011;21990;42.540;23.496;2023-02-15T03:29:19;47.72;;;27.33;;
35887;SDS011;21990;42.540;23.496;2023-02-15T03:31:48;49.30;;;27.00;;
35887;SDS011;21990;42.540;23.496;2023-02-15T03:34:18;50.33;;;27.48;;
35887;SDS011;21990;42.540;23.496;2023-02-15T03:39:33;52.10;;;27.55;;
35887;SDS011;21990;42.540;23.496;2023-02-15T03:44:48;53.97;;;27.42;;
35887;SDS011;21990;42.540;23.496;2023-02-15T03:47:15;50.00;;;27.02;;
35887;SDS011;21990;42.540;23.496;2023-02-15T03:53:03;49.85;;;27.30;;
35887;SDS011;21990;42.540;23.496;2023-02-15T03:55:33;53.55;;;28.02;;
35887;SDS011;21990;42.540;23.496;2023-02-15T03:57:59;50.95;;;27.85;;
35887;SDS011;21990;42.540;23.496;2023-02-15T04:00:59;48.70;;;26.38;;
35887;SDS011;21990;42.540;23.496;2023-02-15T04:06:19;48.60;;;25.88;;
35887;SDS011;21990;42.540;23.496;2023-02-15T04:08:45;53.47;;;27.33;;
35887;SDS011;21990;42.540;23.496;2023-02-15T04:11:29;48.38;;;26.95;;
35887;SDS011;21990;42.540;23.496;2023-02-15T04:13:55;48.50;;;25.52;;
35887;SDS011;21990;42.540;23.496;2023-02-15T04:16:22;49.97;;;27.55;;
35887;SDS011;21990;42.540;23.496;2023-02-15T04:18:48;49.70;;;26.65;;
35887;SDS011;21990;42.540;23.496;2023-02-15T04:21:32;52.05;;;26.55;;
35887;SDS011;21990;42.540;23.496;2023-02-15T04:24:17;54.03;;;26.80;;
35887;SDS011;21990;42.540;23.496;2023-02-15T04:27:02;53.10;;;27.92;;
35887;SDS011;21990;42.540;23.496;2023-02-15T04:29:28;53.72;;;25.75;;
35887;SDS011;21990;42.540;23.496;2023-02-15T04:31:55;47.22;;;25.40;;
35887;SDS011;21990;42.540;23.496;2023-02-15T04:34:21;51.05;;;27.65;;
35887;SDS011;21990;42.540;23.496;2023-02-15T04:36:47;49.28;;;25.65;;
35887;SDS011;21990;42.540;23.496;2023-02-15T04:39:13;49.20;;;26.60;;
35887;SDS011;21990;42.540;23.496;2023-02-15T04:41:40;48.83;;;26.92;;
35887;SDS011;21990;42.540;23.496;2023-02-15T04:44:06;49.92;;;27.20;;
35887;SDS011;21990;42.540;23.496;2023-02-15T04:46:31;46.63;;;24.88;;
35887;SDS011;21990;42.540;23.496;2023-02-15T04:48:57;52.88;;;26.92;;
35887;SDS011;21990;42.540;23.496;2023-02-15T04:51:23;48.45;;;26.67;;
35887;SDS011;21990;42.540;23.496;2023-02-15T04:53:48;48.47;;;26.13;;
35887;SDS011;21990;42.540;23.496;2023-02-15T04:56:14;50.90;;;27.98;;
35887;SDS011;21990;42.540;23.496;2023-02-15T04:58:40;47.20;;;26.30;;
35887;SDS011;21990;42.540;23.496;2023-02-15T05:01:07;51.67;;;27.63;;
35887;SDS011;21990;42.540;23.496;2023-02-15T05:03:33;51.78;;;28.60;;
35887;SDS011;21990;42.540;23.496;2023-02-15T05:05:59;50.17;;;28.02;;
35887;SDS011;21990;42.540;23.496;2023-02-15T05:08:25;50.55;;;28.10;;
35887;SDS011;21990;42.540;23.496;2023-02-15T05:10:50;61.75;;;32.58;;
35887;SDS011;21990;42.540;23.496;2023-02-15T05:13:16;49.00;;;26.17;;
35887;SDS011;21990;42.540;23.496;2023-02-15T05:15:46;56.05;;;29.58;;
35887;SDS011;21990;42.540;23.496;2023-02-15T05:18:12;52.20;;;27.48;;
35887;SDS011;21990;42.540;23.496;2023-02-15T05:20:37;59.33;;;28.70;;
35887;SDS011;21990;42.540;23.496;2023-02-15T05:23:03;52.33;;;27.98;;
35887;SDS011;21990;42.540;23.496;2023-02-15T05:25:28;50.33;;;26.77;;
35887;SDS011;21990;42.540;23.496;2023-02-15T05:28:12;54.50;;;28.50;;
35887;SDS011;21990;42.540;23.496;2023-02-15T05:30:50;58.58;;;29.27;;
35887;SDS011;21990;42.540;23.496;2023-02-15T05:33:29;50.85;;;27.52;;
35887;SDS011;21990;42.540;23.496;2023-02-15T05:35:54;56.72;;;29.63;;
35887;SDS011;21990;42.540;23.496;2023-02-15T05:38:20;55.75;;;29.02;;
35887;SDS011;21990;42.540;23.496;2023-02-15T05:40:45;57.22;;;29.75;;
35887;SDS011;21990;42.540;23.496;2023-02-15T05:43:11;49.78;;;26.63;;
35887;SDS011;21990;42.540;23.496;2023-02-15T05:45:36;49.38;;;27.40;;
35887;SDS011;21990;42.540;23.496;2023-02-15T05:48:02;49.88;;;28.13;;
35887;SDS011;21990;42.540;23.496;2023-02-15T05:50:28;50.00;;;28.08;;
35887;SDS011;21990;42.540;23.496;2023-02-15T05:52:53;49.17;;;27.60;;
35887;SDS011;21990;42.540;23.496;2023-02-15T05:55:19;54.72;;;27.98;;
35887;SDS011;21990;42.540;23.496;2023-02-15T05:57:44;46.28;;;27.20;;
35887;SDS011;21990;42.540;23.496;2023-02-15T06:00:10;52.17;;;29.40;;
35887;SDS011;21990;42.540;23.496;2023-02-15T06:02:37;54.58;;;27.98;;
35887;SDS011;21990;42.540;23.496;2023-02-15T06:05:03;50.10;;;26.77;;
35887;SDS011;21990;42.540;23.496;2023-02-15T06:07:30;52.90;;;28.33;;
35887;SDS011;21990;42.540;23.496;2023-02-15T06:09:56;50.92;;;28.27;;
35887;SDS011;21990;42.540;23.496;2023-02-15T06:12:22;53.40;;;28.70;;
35887;SDS011;21990;42.540;23.496;2023-02-15T06:14:47;51.80;;;28.83;;
35887;SDS011;21990;42.540;23.496;2023-02-15T06:17:13;54.42;;;27.95;;
35887;SDS011;21990;42.540;23.496;2023-02-15T06:19:39;52.83;;;27.98;;
35887;SDS011;21990;42.540;23.496;2023-02-15T06:22:04;51.95;;;28.30;;
35887;SDS011;21990;42.540;23.496;2023-02-15T06:24:31;53.35;;;27.88;;
35887;SDS011;21990;42.540;23.496;2023-02-15T06:26:57;48.63;;;26.90;;
35887;SDS011;21990;42.540;23.496;2023-02-15T06:29:22;54.47;;;27.27;;
35887;SDS011;21990;42.540;23.496;2023-02-15T06:31:48;56.15;;;28.65;;
35887;SDS011;21990;42.540;23.496;2023-02-15T06:34:13;55.63;;;27.05;;
35887;SDS011;21990;42.540;23.496;2023-02-15T06:36:39;52.75;;;27.23;;
35887;SDS011;21990;42.540;23.496;2023-02-15T06:39:04;52.88;;;28.10;;
35887;SDS011;21990;42.540;23.496;2023-02-15T06:41:31;49.60;;;26.60;;
35887;SDS011;21990;42.540;23.496;2023-02-15T06:43:56;59.00;;;29.73;;
35887;SDS011;21990;42.540;23.496;2023-02-15T06:46:22;55.65;;;31.48;;
35887;SDS011;21990;42.540;23.496;2023-02-15T06:48:48;53.30;;;28.30;;
35887;SDS011;21990;42.540;23.496;2023-02-15T06:51:14;48.45;;;27.15;;
35887;SDS011;21990;42.540;23.496;2023-02-15T06:53:39;49.60;;;27.42;;
35887;SDS011;21990;42.540;23.496;2023-02-15T06:56:08;51.22;;;27.48;;
35887;SDS011;21990;42.540;23.496;2023-02-15T06:58:35;48.17;;;25.85;;
35887;SDS011;21990;42.540;23.496;2023-02-15T07:01:02;53.28;;;29.23;;
35887;SDS011;21990;42.540;23.496;2023-02-15T07:03:28;52.83;;;28.52;;
35887;SDS011;21990;42.540;23.496;2023-02-15T07:05:55;48.22;;;26.08;;
35887;SDS011;21990;42.540;23.496;2023-02-15T07:08:22;48.65;;;27.08;;
35887;SDS011;21990;42.540;23.496;2023-02-15T07:10:50;48.35;;;26.40;;
35887;SDS011;21990;42.540;23.496;2023-02-15T07:13:17;53.78;;;27.50;;
35887;SDS011;21990;42.540;23.496;2023-02-15T07:15:43;47.03;;;26.17;;
35887;SDS011;21990;42.540;23.496;2023-02-15T07:18:09;49.22;;;27.08;;
35887;SDS011;21990;42.540;23.496;2023-02-15T07:20:35;53.97;;;27.08;;
35887;SDS011;21990;42.540;23.496;2023-02-15T07:23:02;47.45;;;24.55;;
35887;SDS011;21990;42.540;23.496;2023-02-15T07:25:28;49.00;;;25.25;;
35887;SDS011;21990;42.540;23.496;2023-02-15T07:28:01;42.53;;;22.73;;
35887;SDS011;21990;42.540;23.496;2023-02-15T07:30:28;41.97;;;23.17;;
35887;SDS011;21990;42.540;23.496;2023-02-15T07:32:55;43.92;;;23.27;;
35887;SDS011;21990;42.540;23.496;2023-02-15T07:35:46;48.25;;;23.02;;
35887;SDS011;21990;42.540;23.496;2023-02-15T07:38:12;42.28;;;23.35;;
35887;SDS011;21990;42.540;23.496;2023-02-15T07:40:38;39.63;;;21.98;;
35887;SDS011;21990;42.540;23.496;2023-02-15T07:43:03;42.15;;;23.63;;
35887;SDS011;21990;42.540;23.496;2023-02-15T07:45:29;43.03;;;22.27;;
35887;SDS011;21990;42.540;23.496;2023-02-15T07:47:54;40.28;;;22.67;;
35887;SDS011;21990;42.540;23.496;2023-02-15T07:50:20;57.30;;;29.08;;
35887;SDS011;21990;42.540;23.496;2023-02-15T07:52:45;49.22;;;25.10;;
35887;SDS011;21990;42.540;23.496;2023-02-15T07:55:11;39.53;;;21.50;;
35887;SDS011;21990;42.540;23.496;2023-02-15T07:57:41;34.47;;;19.77;;
35887;SDS011;21990;42.540;23.496;2023-02-15T08:00:08;36.10;;;20.50;;
35887;SDS011;21990;42.540;23.496;2023-02-15T08:02:34;40.13;;;22.00;;
35887;SDS011;21990;42.540;23.496;2023-02-15T08:05:02;37.45;;;19.77;;
35887;SDS011;21990;42.540;23.496;2023-02-15T08:07:27;40.53;;;24.02;;
35887;SDS011;21990;42.540;23.496;2023-02-15T08:09:53;42.88;;;24.23;;
35887;SDS011;21990;42.540;23.496;2023-02-15T08:12:19;48.55;;;22.55;;
35887;SDS011;21990;42.540;23.496;2023-02-15T08:14:44;41.30;;;23.15;;
35887;SDS011;21990;42.540;23.496;2023-02-15T08:17:10;39.53;;;21.48;;
35887;SDS011;21990;42.540;23.496;2023-02-15T08:19:36;36.75;;;20.45;;
35887;SDS011;21990;42.540;23.496;2023-02-15T08:22:02;33.85;;;18.50;;
35887;SDS011;21990;42.540;23.496;2023-02-15T08:24:34;31.38;;;18.42;;
35887;SDS011;21990;42.540;23.496;2023-02-15T08:27:04;35.08;;;18.88;;
35887;SDS011;21990;42.540;23.496;2023-02-15T08:29:32;33.60;;;19.67;;
35887;SDS011;21990;42.540;23.496;2023-02-15T08:32:00;36.28;;;18.95;;
35887;SDS011;21990;42.540;23.496;2023-02-15T08:34:31;32.53;;;18.48;;
35887;SDS011;21990;42.540;23.496;2023-02-15T08:36:59;34.03;;;19.60;;
35887;SDS011;21990;42.540;23.496;2023-02-15T08:39:25;38.75;;;22.35;;
35887;SDS011;21990;42.540;23.496;2023-02-15T08:41:51;31.52;;;18.77;;
35887;SDS011;21990;42.540;23.496;2023-02-15T08:44:17;33.20;;;17.65;;
35887;SDS011;21990;42.540;23.496;2023-02-15T08:46:45;30.83;;;17.40;;
35887;SDS011;21990;42.540;23.496;2023-02-15T08:49:14;37.67;;;19.30;;
35887;SDS011;21990;42.540;23.496;2023-02-15T08:51:42;44.28;;;22.17;;
35887;SDS011;21990;42.540;23.496;2023-02-15T08:54:09;86.95;;;39.15;;
35887;SDS011;21990;42.540;23.496;2023-02-15T08:56:38;147.10;;;60.63;;
35887;SDS011;21990;42.540;23.496;2023-02-15T08:59:05;304.20;;;118.28;;
35887;SDS011;21990;42.540;23.496;2023-02-15T09:01:32;182.55;;;72.35;;
35887;SDS011;21990;42.540;23.496;2023-02-15T09:04:03;130.48;;;48.45;;
35887;SDS011;21990;42.540;23.496;2023-02-15T09:06:31;134.57;;;50.40;;
35887;SDS011;21990;42.540;23.496;2023-02-15T09:08:57;113.97;;;40.35;;
35887;SDS011;21990;42.540;23.496;2023-02-15T09:11:29;86.65;;;36.33;;
35887;SDS011;21990;42.540;23.496;2023-02-15T09:14:00;47.88;;;23.40;;
35887;SDS011;21990;42.540;23.496;2023-02-15T09:16:30;123.88;;;47.90;;
35887;SDS011;21990;42.540;23.496;2023-02-15T09:18:57;89.18;;;35.47;;
35887;SDS011;21990;42.540;23.496;2023-02-15T09:21:23;106.63;;;42.65;;
35887;SDS011;21990;42.540;23.496;2023-02-15T09:23:51;37.75;;;20.40;;
35887;SDS011;21990;42.540;23.496;2023-02-15T09:26:21;55.42;;;22.40;;
35887;SDS011;21990;42.540;23.496;2023-02-15T09:28:51;88.75;;;32.75;;
35887;SDS011;21990;42.540;23.496;2023-02-15T09:31:20;166.80;;;52.40;;
35887;SDS011;21990;42.540;23.496;2023-02-15T09:33:48;89.88;;;32.25;;
35887;SDS011;21990;42.540;23.496;2023-02-15T09:36:23;42.15;;;21.70;;
35887;SDS011;21990;42.540;23.496;2023-02-15T09:39:11;63.42;;;29.20;;
35887;SDS011;21990;42.540;23.496;2023-02-15T09:58:07;30.73;;;17.70;;
35887;SDS011;21990;42.540;23.496;2023-02-15T10:03:33;34.80;;;18.48;;
35887;SDS011;21990;42.540;23.496;2023-02-15T10:09:02;52.67;;;27.15;;
35887;SDS011;21990;42.540;23.496;2023-02-15T10:11:55;42.65;;;20.08;;
35887;SDS011;21990;42.540;23.496;2023-02-15T10:27:49;46.97;;;24.38;;
35887;SDS011;21990;42.540;23.496;2023-02-15T10:30:20;109.50;;;50.28;;
35887;SDS011;21990;42.540;23.496;2023-02-15T10:33:01;103.50;;;42.55;;
35887;SDS011;21990;42.540;23.496;2023-02-15T10:35:50;55.33;;;27.85;;
35887;SDS011;21990;42.540;23.496;2023-02-15T10:38:32;145.20;;;63.50;;
35887;SDS011;21990;42.540;23.496;2023-02-15T10:55:04;72.60;;;34.72;;
35887;SDS011;21990;42.540;23.496;2023-02-15T10:57:44;40.08;;;21.42;;
35887;SDS011;21990;42.540;23.496;2023-02-15T11:00:44;34.08;;;20.27;;
35887;SDS011;21990;42.540;23.496;2023-02-15T11:06:17;39.78;;;22.40;;
35887;SDS011;21990;42.540;23.496;2023-02-15T11:09:00;46.38;;;26.13;;
35887;SDS011;21990;42.540;23.496;2023-02-15T11:11:32;42.00;;;22.25;;
35887;SDS011;21990;42.540;23.496;2023-02-15T11:17:05;37.42;;;20.27;;
35887;SDS011;21990;42.540;23.496;2023-02-15T11:19:37;40.45;;;21.90;;
35887;SDS011;21990;42.540;23.496;2023-02-15T11:22:23;37.80;;;21.33;;
35887;SDS011;21990;42.540;23.496;2023-02-15T11:24:49;43.40;;;22.10;;
35887;SDS011;21990;42.540;23.496;2023-02-15T11:27:17;35.15;;;20.98;;
35887;SDS011;21990;42.540;23.496;2023-02-15T11:32:29;35.40;;;20.27;;
35887;SDS011;21990;42.540;23.496;2023-02-15T11:35:10;36.60;;;19.60;;
35887;SDS011;21990;42.540;23.496;2023-02-15T11:37:48;33.40;;;19.85;;
35887;SDS011;21990;42.540;23.496;2023-02-15T11:40:36;32.83;;;19.67;;
35887;SDS011;21990;42.540;23.496;2023-02-15T11:46:19;34.58;;;19.83;;
35887;SDS011;21990;42.540;23.496;2023-02-15T11:48:46;35.78;;;21.40;;
35887;SDS011;21990;42.540;23.496;2023-02-15T11:51:16;33.08;;;18.63;;
35887;SDS011;21990;42.540;23.496;2023-02-15T11:53:44;37.17;;;20.77;;
35887;SDS011;21990;42.540;23.496;2023-02-15T11:56:14;35.85;;;20.58;;
35887;SDS011;21990;42.540;23.496;2023-02-15T11:58:43;32.17;;;20.52;;
35887;SDS011;21990;42.540;23.496;2023-02-15T12:01:24;42.90;;;24.88;;
35887;SDS011;21990;42.540;23.496;2023-02-15T12:13:08;38.03;;;21.20;;
35887;SDS011;21990;42.540;23.496;2023-02-15T12:15:51;33.75;;;20.33;;
35887;SDS011;21990;42.540;23.496;2023-02-15T12:21:03;34.15;;;20.00;;
35887;SDS011;21990;42.540;23.496;2023-02-15T12:23:47;33.83;;;19.80;;
35887;SDS011;21990;42.540;23.496;2023-02-15T12:26:25;24.13;;;15.00;;
35887;SDS011;21990;42.540;23.496;2023-02-15T12:31:55;40.75;;;20.85;;
35887;SDS011;21990;42.540;23.496;2023-02-15T12:34:25;38.20;;;20.42;;
35887;SDS011;21990;42.540;23.496;2023-02-15T12:37:09;35.03;;;21.33;;
35887;SDS011;21990;42.540;23.496;2023-02-15T12:39:44;41.35;;;21.83;;
35887;SDS011;21990;42.540;23.496;2023-02-15T12:42:17;36.75;;;22.35;;
35887;SDS011;21990;42.540;23.496;2023-02-15T12:45:20;37.75;;;21.45;;
35887;SDS011;21990;42.540;23.496;2023-02-15T12:47:44;39.63;;;24.20;;
35887;SDS011;21990;42.540;23.496;2023-02-15T12:50:22;34.47;;;20.38;;
35887;SDS011;21990;42.540;23.496;2023-02-15T12:53:04;33.38;;;20.00;;
35887;SDS011;21990;42.540;23.496;2023-02-15T12:55:33;54.15;;;28.35;;
35887;SDS011;21990;42.540;23.496;2023-02-15T12:58:20;40.50;;;22.77;;
35887;SDS011;21990;42.540;23.496;2023-02-15T13:03:35;38.47;;;21.83;;
35887;SDS011;21990;42.540;23.496;2023-02-15T13:06:02;39.65;;;23.08;;
35887;SDS011;21990;42.540;23.496;2023-02-15T13:08:34;37.10;;;20.35;;
35887;SDS011;21990;42.540;23.496;2023-02-15T13:11:10;43.42;;;24.10;;
35887;SDS011;21990;42.540;23.496;2023-02-15T13:13:55;37.55;;;21.95;;
35887;SDS011;21990;42.540;23.496;2023-02-15T13:16:41;36.95;;;22.25;;
35887;SDS011;21990;42.540;23.496;2023-02-15T13:19:10;36.13;;;21.48;;
35887;SDS011;21990;42.540;23.496;2023-02-15T13:21:47;45.55;;;21.35;;
35887;SDS011;21990;42.540;23.496;2023-02-15T13:24:19;35.08;;;21.13;;
35887;SDS011;21990;42.540;23.496;2023-02-15T13:26:48;38.05;;;21.27;;
35887;SDS011;21990;42.540;23.496;2023-02-15T13:29:20;36.90;;;20.40;;
35887;SDS011;21990;42.540;23.496;2023-02-15T13:31:50;40.10;;;22.02;;
35887;SDS011;21990;42.540;23.496;2023-02-15T13:34:31;39.95;;;20.70;;
35887;SDS011;21990;42.540;23.496;2023-02-15T13:42:55;33.42;;;19.88;;
35887;SDS011;21990;42.540;23.496;2023-02-15T13:50:54;33.42;;;19.27;;
35887;SDS011;21990;42.540;23.496;2023-02-15T13:56:25;32.28;;;18.98;;
35887;SDS011;21990;42.540;23.496;2023-02-15T14:01:56;35.65;;;20.15;;
35887;SDS011;21990;42.540;23.496;2023-02-15T14:07:10;36.05;;;21.58;;
35887;SDS011;21990;42.540;23.496;2023-02-15T14:10:02;38.55;;;23.17;;
35887;SDS011;21990;42.540;23.496;2023-02-15T14:15:56;38.50;;;21.70;;
35887;SDS011;21990;42.540;23.496;2023-02-15T14:21:05;41.42;;;23.33;;
35887;SDS011;21990;42.540;23.496;2023-02-15T14:26:36;43.90;;;24.17;;
35887;SDS011;21990;42.540;23.496;2023-02-15T14:35:33;46.90;;;28.05;;
35887;SDS011;21990;42.540;23.496;2023-02-15T14:43:46;56.55;;;29.30;;
35887;SDS011;21990;42.540;23.496;2023-02-15T14:49:27;47.63;;;28.45;;
35887;SDS011;21990;42.540;23.496;2023-02-15T14:51:57;56.92;;;30.48;;
35887;SDS011;21990;42.540;23.496;2023-02-15T15:07:59;47.17;;;27.27;;
35887;SDS011;21990;42.540;23.496;2023-02-15T15:10:36;50.78;;;28.50;;
35887;SDS011;21990;42.540;23.496;2023-02-15T15:13:51;51.88;;;27.75;;
35887;SDS011;21990;42.540;23.496;2023-02-15T15:16:05;54.63;;;29.23;;
35887;SDS011;21990;42.540;23.496;2023-02-15T15:18:49;45.75;;;25.55;;
35887;SDS011;21990;42.540;23.496;2023-02-15T15:30:02;52.47;;;28.58;;
35887;SDS011;21990;42.540;23.496;2023-02-15T15:35:35;54.95;;;28.40;;
35887;SDS011;21990;42.540;23.496;2023-02-15T15:38:39;56.78;;;31.15;;
35887;SDS011;21990;42.540;23.496;2023-02-15T15:49:39;47.35;;;26.58;;
35887;SDS011;21990;42.540;23.496;2023-02-15T15:52:12;53.25;;;26.38;;
35887;SDS011;21990;42.540;23.496;2023-02-15T15:54:40;50.70;;;26.35;;
35887;SDS011;21990;42.540;23.496;2023-02-15T15:57:12;49.47;;;26.50;;
35887;SDS011;21990;42.540;23.496;2023-02-15T15:59:43;48.17;;;25.77;;
35887;SDS011;21990;42.540;23.496;2023-02-15T16:02:14;45.90;;;26.10;;
35887;SDS011;21990;42.540;23.496;2023-02-15T16:04:42;56.20;;;29.35;;
35887;SDS011;21990;42.540;23.496;2023-02-15T16:12:21;51.13;;;29.58;;
35887;SDS011;21990;42.540;23.496;2023-02-15T16:14:47;57.55;;;31.85;;
35887;SDS011;21990;42.540;23.496;2023-02-15T16:17:24;47.78;;;28.73;;
35887;SDS011;21990;42.540;23.496;2023-02-15T16:19:53;62.63;;;35.75;;
35887;SDS011;21990;42.540;23.496;2023-02-15T16:22:24;60.78;;;36.05;;
35887;SDS011;21990;42.540;23.496;2023-02-15T16:27:38;58.88;;;31.55;;
35887;SDS011;21990;42.540;23.496;2023-02-15T16:32:56;54.00;;;30.20;;
35887;SDS011;21990;42.540;23.496;2023-02-15T16:35:28;59.40;;;32.17;;
35887;SDS011;21990;42.540;23.496;2023-02-15T16:37:54;46.97;;;25.25;;
35887;SDS011;21990;42.540;23.496;2023-02-15T16:40:32;42.97;;;25.13;;
35887;SDS011;21990;42.540;23.496;2023-02-15T16:43:06;39.30;;;23.23;;
35887;SDS011;21990;42.540;23.496;2023-02-15T16:45:46;46.88;;;25.75;;
35887;SDS011;21990;42.540;23.496;2023-02-15T16:48:15;49.47;;;26.48;;
35887;SDS011;21990;42.540;23.496;2023-02-15T16:50:50;52.38;;;28.85;;
35887;SDS011;21990;42.540;23.496;2023-02-15T16:53:20;64.85;;;32.78;;
35887;SDS011;21990;42.540;23.496;2023-02-15T16:55:55;71.82;;;35.83;;
35887;SDS011;21990;42.540;23.496;2023-02-15T16:58:41;71.15;;;37.63;;
35887;SDS011;21990;42.540;23.496;2023-02-15T17:01:10;95.70;;;43.47;;
35887;SDS011;21990;42.540;23.496;2023-02-15T17:03:40;48.95;;;27.20;;
35887;SDS011;21990;42.540;23.496;2023-02-15T17:06:25;51.95;;;27.42;;
35887;SDS011;21990;42.540;23.496;2023-02-15T17:09:02;50.90;;;26.38;;
35887;SDS011;21990;42.540;23.496;2023-02-15T17:11:41;57.78;;;31.17;;
35887;SDS011;21990;42.540;23.496;2023-02-15T17:19:17;61.88;;;32.47;;
35887;SDS011;21990;42.540;23.496;2023-02-15T17:21:49;65.63;;;30.42;;
35887;SDS011;21990;42.540;23.496;2023-02-15T17:24:25;51.47;;;26.73;;
35887;SDS011;21990;42.540;23.496;2023-02-15T17:27:11;51.88;;;27.15;;
35887;SDS011;21990;42.540;23.496;2023-02-15T17:29:52;54.25;;;28.95;;
35887;SDS011;21990;42.540;23.496;2023-02-15T17:32:23;58.00;;;28.17;;
35887;SDS011;21990;42.540;23.496;2023-02-15T17:37:43;55.25;;;29.08;;
35887;SDS011;21990;42.540;23.496;2023-02-15T17:40:17;52.15;;;27.73;;
35887;SDS011;21990;42.540;23.496;2023-02-15T17:42:54;56.35;;;28.80;;
35887;SDS011;21990;42.540;23.496;2023-02-15T17:45:21;58.65;;;32.03;;
35887;SDS011;21990;42.540;23.496;2023-02-15T17:47:49;52.45;;;27.55;;
35887;SDS011;21990;42.540;23.496;2023-02-15T17:50:20;59.17;;;27.70;;
35887;SDS011;21990;42.540;23.496;2023-02-15T17:52:50;60.58;;;29.85;;
35887;SDS011;21990;42.540;23.496;2023-02-15T17:55:19;55.50;;;29.67;;
35887;SDS011;21990;42.540;23.496;2023-02-15T17:58:11;59.80;;;29.85;;